This is the latest recevied weather packets stored in our database for station/object WX2P-13. If no packets are shown the sender has not sent any weather packets the latest 10 day(s).
| Time | Temp. | Humidity | Pressure | Rain* | Wind** | Luminosity | Snow |
|---|---|---|---|---|---|---|---|
| 1777746895 | 20.56° C | 98% | 1012.1 hPa | 3.05 mm | - | 15 W/m² | - |
| 1777746590 | 20.56° C | 97% | 1012.3 hPa | 1.78 mm | - | 16 W/m² | - |
| 1777746286 | 20.56° C | 97% | 1012.2 hPa | 0 mm | - | 15 W/m² | - |
| 1777745681 | 20.56° C | 97% | 1012 hPa | 1.27 mm | - | 14 W/m² | - |
| 1777745380 | 20.56° C | 97% | 1012.1 hPa | 1.78 mm | - | 15 W/m² | - |
| 1777745076 | 20.56° C | 97% | 1012.9 hPa | 1.78 mm | - | 12 W/m² | - |
| 1777744772 | 20.56° C | 97% | 1012.1 hPa | 6.1 mm | - | 9 W/m² | - |
| 1777744466 | 20.56° C | 96% | 1011.5 hPa | 19.81 mm | - | 6 W/m² | - |
| 1777743556 | 21.11° C | 94% | 1012.3 hPa | 16.76 mm | - | 3 W/m² | - |
| 1777742041 | 26.67° C | 85% | 1011.6 hPa | 0 mm | - | 15 W/m² | - |
| 1777741738 | 26.67° C | 84% | 1011.6 hPa | 0 mm | - | 29 W/m² | - |
| 1777741435 | 27.22° C | 84% | 1011.6 hPa | 0 mm | - | 44 W/m² | - |
| 1777741130 | 27.22° C | 83% | 1011.7 hPa | 0 mm | - | 70 W/m² | - |
| 1777739918 | 27.78° C | 81% | 1011.7 hPa | 0 mm | - | 164 W/m² | - |
| 1777739312 | 28.89° C | 79% | 1011.6 hPa | 0 mm | - | 239 W/m² | - |
| 1777738706 | 28.89° C | 79% | 1011.6 hPa | 0 mm | - | 399 W/m² | - |
| 1777738100 | 28.33° C | 79% | 1011.4 hPa | 0 mm | - | 424 W/m² | - |
| 1777736890 | 27.78° C | 81% | 1011.3 hPa | 0 mm | - | 245 W/m² | - |
| 1777736282 | 27.78° C | 80% | 1011.4 hPa | 0 mm | - | 193 W/m² | - |
| 1777735978 | 27.78° C | 80% | 1011.4 hPa | 0 mm | - | 189 W/m² | - |
| 1777735676 | 27.78° C | 79% | 1011.3 hPa | 0 mm | - | 197 W/m² | - |
| 1777735373 | 28.33° C | 79% | 1011.3 hPa | 0 mm | - | 223 W/m² | - |
| 1777735071 | 27.78° C | 79% | 1011.4 hPa | 0 mm | - | 261 W/m² | - |
| 1777734767 | 27.78° C | 79% | 1011.4 hPa | 0 mm | - | 321 W/m² | - |
| 1777734465 | 27.78° C | 79% | 1011.2 hPa | 0 mm | - | 405 W/m² | - |
* Rain latest hour (hover to see other rain measurements)
** Current wind speed in m/s (hover to see current wind gust speed)